createdAt,value
2024-05-09T00:02:58.410Z,19.15
2024-05-09T00:08:00.401Z,19.92
2024-05-09T00:13:03.029Z,18.27
2024-05-09T00:18:07.135Z,13.35
2024-05-09T00:23:15.962Z,18.58
2024-05-09T00:28:18.133Z,20.15
2024-05-09T00:33:20.449Z,19.92
2024-05-09T00:38:22.724Z,20.92
2024-05-09T00:43:24.734Z,24.70
2024-05-09T00:48:27.270Z,20.67
2024-05-09T00:53:29.774Z,19.92
2024-05-09T00:58:31.987Z,21.92
2024-05-09T01:03:34.202Z,22.10
2024-05-09T01:08:36.516Z,17.20
2024-05-09T01:13:38.533Z,22.92
2024-05-09T01:18:40.950Z,22.30
2024-05-09T01:23:43.128Z,20.73
2024-05-09T01:28:45.244Z,22.08
2024-05-09T01:33:47.456Z,16.35
2024-05-09T01:38:49.689Z,16.38
2024-05-09T01:43:51.789Z,17.83
2024-05-09T01:48:53.887Z,15.48
2024-05-09T01:53:56.051Z,11.35
2024-05-09T01:58:58.140Z,15.90
2024-05-09T02:04:00.413Z,17.38
2024-05-09T02:09:02.478Z,15.13
2024-05-09T02:14:04.483Z,14.48
2024-05-09T02:19:06.747Z,14.48
2024-05-09T02:24:08.849Z,10.43
2024-05-09T02:29:10.868Z,16.33
2024-05-09T02:34:13.616Z,14.30
2024-05-09T02:39:15.912Z,16.42
2024-05-09T02:44:17.977Z,17.50
2024-05-09T02:49:20.204Z,15.48
2024-05-09T02:54:22.261Z,13.18
2024-05-09T02:59:24.381Z,14.77
2024-05-09T03:04:26.567Z,8.85
2024-05-09T03:09:29.180Z,12.43
2024-05-09T03:14:31.440Z,14.32
2024-05-09T03:19:35.382Z,14.98
2024-05-09T03:24:37.496Z,16.85
2024-05-09T03:29:39.584Z,12.85
2024-05-09T03:34:41.770Z,15.38
2024-05-09T03:39:43.818Z,13.20
2024-05-09T03:44:45.823Z,12.27
2024-05-09T03:49:47.820Z,14.60
2024-05-09T03:54:49.865Z,10.38
2024-05-09T03:59:51.943Z,14.63
2024-05-09T04:04:54.041Z,13.15
2024-05-09T04:09:57.322Z,14.52
2024-05-09T04:14:59.430Z,14.13
2024-05-09T04:20:01.455Z,17.33
2024-05-09T04:25:03.674Z,17.52
2024-05-09T04:30:09.937Z,14.93
2024-05-09T04:35:16.574Z,13.60
2024-05-09T04:40:27.791Z,14.48
2024-05-09T04:45:35.059Z,15.13
2024-05-09T04:50:39.257Z,15.30
2024-05-09T04:55:41.929Z,11.63
2024-05-09T05:00:44.059Z,17.35
2024-05-09T05:05:46.475Z,12.85
2024-05-09T05:10:49.424Z,14.52
2024-05-09T05:15:57.527Z,11.90
2024-05-09T05:21:00.353Z,16.80
2024-05-09T05:26:02.435Z,31.92
2024-05-09T05:31:04.606Z,26.88
2024-05-09T05:36:07.306Z,23.70
2024-05-09T05:41:10.048Z,24.23
2024-05-09T05:46:12.054Z,23.73
2024-05-09T05:51:14.304Z,22.20
2024-05-09T05:56:16.586Z,29.00
2024-05-09T06:01:18.684Z,19.30
2024-05-09T06:06:20.718Z,24.52
2024-05-09T06:11:22.829Z,29.40
2024-05-09T06:16:24.919Z,35.83
2024-05-09T06:21:27.989Z,29.42
2024-05-09T06:26:30.101Z,30.48
2024-05-09T06:31:32.189Z,28.75
2024-05-09T06:36:34.239Z,31.08
2024-05-09T06:41:36.612Z,26.65
2024-05-09T06:46:40.345Z,24.67
2024-05-09T06:51:42.425Z,24.73
2024-05-09T06:56:44.479Z,23.33
2024-05-09T07:01:46.661Z,26.35
2024-05-09T07:06:48.671Z,22.65
2024-05-09T07:11:50.796Z,22.50
2024-05-09T07:16:53.128Z,18.38
2024-05-09T07:21:55.319Z,15.75
2024-05-09T07:26:57.352Z,18.88
2024-05-09T07:31:59.379Z,22.13
2024-05-09T07:37:02.179Z,15.35
2024-05-09T07:42:04.853Z,15.50
2024-05-09T07:48:14.513Z,14.02
2024-05-09T07:53:32.516Z,13.50
2024-05-09T07:57:50.841Z,13.45
2024-05-09T08:02:52.892Z,13.15
2024-05-09T08:07:55.943Z,12.52
2024-05-09T08:12:57.971Z,17.65
2024-05-09T08:18:00.265Z,15.05
2024-05-09T08:23:02.484Z,14.27
2024-05-09T08:28:05.409Z,15.60
2024-05-09T08:33:08.171Z,13.13
2024-05-09T08:38:10.413Z,15.70
2024-05-09T08:43:14.245Z,15.95
2024-05-09T08:48:18.120Z,41.20
2024-05-09T08:53:20.484Z,13.50
2024-05-09T08:58:22.815Z,12.63
2024-05-09T09:03:27.964Z,13.93
2024-05-09T09:08:30.050Z,14.70
2024-05-09T09:13:32.275Z,17.05
2024-05-09T09:18:34.679Z,12.82
2024-05-09T09:23:37.011Z,16.67
2024-05-09T09:28:40.762Z,17.13
2024-05-09T09:33:43.172Z,11.25
2024-05-09T09:38:46.942Z,10.90
2024-05-09T09:43:49.093Z,31.92
2024-05-09T09:48:51.310Z,43.15
2024-05-09T09:53:53.582Z,11.63
2024-05-09T09:58:56.104Z,59.92
2024-05-09T10:03:58.444Z,20.45
2024-05-09T10:09:00.952Z,57.90
2024-05-09T10:14:04.096Z,40.53
2024-05-09T10:19:06.236Z,29.55
2024-05-09T10:24:08.299Z,13.68
2024-05-09T10:29:17.930Z,25.77
2024-05-09T10:34:21.492Z,16.65
2024-05-09T10:39:25.139Z,53.83
2024-05-09T10:44:27.260Z,27.95
2024-05-09T10:49:29.362Z,59.05
2024-05-09T10:54:37.970Z,114.03
2024-05-09T10:59:42.585Z,31.35
2024-05-09T11:04:45.482Z,34.15
2024-05-09T11:09:48.215Z,73.97
2024-05-09T11:14:54.232Z,26.75
2024-05-09T11:19:56.395Z,16.40
2024-05-09T11:24:59.240Z,14.27
2024-05-09T11:30:01.923Z,46.60
2024-05-09T11:35:04.203Z,34.25
2024-05-09T11:40:11.418Z,17.73
2024-05-09T11:45:15.714Z,20.90
2024-05-09T11:50:26.800Z,17.02
2024-05-09T11:55:36.673Z,31.08
2024-05-09T12:00:40.493Z,61.60
2024-05-09T12:05:42.760Z,45.80
2024-05-09T12:10:45.165Z,51.05
2024-05-09T12:15:47.242Z,40.78
2024-05-09T12:20:49.336Z,39.08
2024-05-09T12:25:51.408Z,110.85
2024-05-09T12:30:53.465Z,30.55
2024-05-09T12:35:55.752Z,74.72
2024-05-09T12:40:57.880Z,150.05
2024-05-09T12:46:00.185Z,44.60
2024-05-09T12:51:02.373Z,119.22
2024-05-09T12:56:06.082Z,49.92
2024-05-09T13:01:09.434Z,103.22
2024-05-09T13:06:11.647Z,292.25
2024-05-09T13:11:14.366Z,172.07
2024-05-09T13:16:16.593Z,190.07
2024-05-09T13:21:18.881Z,122.38
2024-05-09T13:26:20.992Z,177.57
2024-05-09T13:31:23.142Z,217.43
2024-05-09T13:36:25.240Z,51.05
2024-05-09T13:41:27.250Z,111.80
2024-05-09T13:46:29.472Z,458.83
2024-05-09T13:51:31.630Z,709.53
2024-05-09T13:56:33.729Z,230.00
2024-05-09T14:01:35.888Z,253.70
2024-05-09T14:06:38.029Z,74.10
2024-05-09T14:11:40.208Z,249.82
2024-05-09T14:16:43.013Z,161.48
2024-05-09T14:21:45.102Z,159.55
2024-05-09T14:26:47.251Z,113.43
2024-05-09T14:31:49.498Z,176.65
2024-05-09T14:36:51.665Z,42.78
2024-05-09T14:41:53.668Z,220.63
2024-05-09T14:46:55.807Z,107.97
2024-05-09T14:51:58.038Z,53.95
2024-05-09T14:57:01.114Z,87.15
2024-05-09T15:02:03.468Z,132.73
2024-05-09T15:07:07.097Z,44.83
2024-05-09T15:12:10.172Z,71.20
2024-05-09T15:17:12.351Z,120.03
2024-05-09T15:22:17.627Z,76.85
2024-05-09T15:27:20.286Z,28.95
2024-05-09T15:32:22.428Z,57.53
2024-05-09T15:37:25.144Z,68.32
2024-05-09T15:42:27.345Z,26.48
2024-05-09T15:47:29.740Z,71.45
2024-05-09T15:52:31.914Z,67.07
2024-05-09T15:57:34.001Z,90.43
2024-05-09T16:02:36.210Z,68.25
2024-05-09T16:07:39.293Z,69.03
2024-05-09T16:12:41.358Z,68.18
2024-05-09T16:17:43.429Z,71.82
2024-05-09T16:22:46.163Z,69.88
2024-05-09T16:27:48.315Z,42.80
2024-05-09T16:32:50.546Z,116.85
2024-05-09T16:37:52.702Z,79.32
2024-05-09T16:42:54.793Z,40.85
2024-05-09T16:47:57.301Z,105.38
2024-05-09T16:52:59.452Z,69.65
2024-05-09T16:58:01.999Z,45.25
2024-05-09T17:03:04.655Z,107.70
2024-05-09T17:08:07.404Z,72.18
2024-05-09T17:13:10.234Z,100.18
2024-05-09T17:18:12.443Z,45.17
2024-05-09T17:23:14.807Z,84.03
2024-05-09T17:28:17.164Z,31.45
2024-05-09T17:33:19.675Z,45.50
2024-05-09T17:38:23.794Z,83.45
2024-05-09T17:43:25.988Z,72.90
2024-05-09T17:48:28.206Z,48.28
2024-05-09T17:53:30.340Z,32.08
2024-05-09T17:58:32.464Z,49.30
2024-05-09T18:03:34.726Z,40.30
2024-05-09T18:08:36.920Z,29.73
2024-05-09T18:13:39.178Z,27.23
2024-05-09T18:18:41.580Z,26.15
2024-05-09T18:23:43.671Z,21.38
2024-05-09T18:28:47.457Z,15.27
2024-05-09T18:33:49.864Z,25.30
2024-05-09T18:38:51.978Z,33.92
2024-05-09T18:43:55.410Z,26.73
2024-05-09T18:48:58.016Z,31.80
2024-05-09T18:54:00.228Z,40.88
2024-05-09T18:59:02.239Z,24.73
2024-05-09T19:04:04.637Z,21.70
2024-05-09T19:09:07.344Z,23.92
2024-05-09T19:14:10.674Z,23.50
2024-05-09T19:19:15.159Z,23.88
2024-05-09T19:24:17.595Z,24.20
2024-05-09T19:29:19.634Z,25.10
2024-05-09T19:34:21.681Z,19.05
2024-05-09T19:39:24.135Z,32.63
2024-05-09T19:44:26.206Z,26.38
2024-05-09T19:49:29.020Z,21.70
2024-05-09T19:54:31.223Z,17.98
2024-05-09T19:59:33.295Z,17.65
2024-05-09T20:04:35.592Z,30.75
2024-05-09T20:09:37.977Z,16.40
2024-05-09T20:14:40.212Z,18.13
2024-05-09T20:19:44.115Z,15.43
2024-05-09T20:24:46.351Z,18.02
2024-05-09T20:29:48.415Z,16.80
2024-05-09T20:34:51.814Z,14.60
2024-05-09T20:39:53.876Z,27.25
2024-05-09T20:44:56.409Z,18.15
2024-05-09T20:49:58.576Z,19.52
2024-05-09T20:55:00.803Z,14.05
2024-05-09T21:00:03.424Z,21.55
2024-05-09T21:05:07.993Z,19.65
2024-05-09T21:10:15.465Z,16.92
2024-05-09T21:15:21.576Z,20.42
2024-05-09T21:25:31.738Z,22.25
2024-05-09T21:30:41.281Z,18.08
2024-05-09T21:35:45.407Z,18.80
2024-05-09T21:40:47.731Z,19.08
2024-05-09T21:45:49.962Z,22.67
2024-05-09T21:50:52.202Z,21.35
2024-05-09T21:55:54.280Z,19.58
2024-05-09T22:00:56.390Z,22.13
2024-05-09T22:05:59.854Z,24.20
2024-05-09T22:11:02.118Z,22.90
2024-05-09T22:16:04.715Z,22.08
2024-05-09T22:21:06.786Z,23.35
2024-05-09T22:26:09.182Z,24.08
2024-05-09T22:31:11.288Z,17.77
2024-05-09T22:36:13.595Z,21.17
2024-05-09T22:41:15.650Z,23.45
2024-05-09T22:46:18.018Z,23.40
2024-05-09T22:51:20.220Z,23.15
2024-05-09T22:56:29.269Z,24.45
2024-05-09T23:01:31.381Z,22.25
2024-05-09T23:06:33.481Z,23.33
2024-05-09T23:11:35.677Z,22.08
2024-05-09T23:16:37.902Z,23.42
2024-05-09T23:21:43.033Z,24.55
2024-05-09T23:26:45.122Z,25.50
2024-05-09T23:31:47.394Z,28.13
2024-05-09T23:36:49.524Z,23.08
2024-05-09T23:41:51.694Z,24.25
2024-05-09T23:46:53.825Z,30.25
2024-05-09T23:51:55.970Z,29.92
2024-05-09T23:56:58.070Z,25.58
